Hlavní strana
METAR-TAF:

METAR-TAF

Letiště :

Conakry, Guinea

zeměpisná šířka: 09-34N, zeměpisná délka: 013-37W, výška: 26 m

Aktuální stav počasí

Zpráva byla vytvořena před 1 hodinou a 19 minutami, v 13:00 UTC
Severozápadní vítr 8 kt
Teplota 31°C
Vlhkost vzduchu 71%
Tlak 1014 hPa
Viditelnost 10 km a více
Skoro jasno ve výšce 1500 ft

METAR: GUCY 101300Z 31008KT 9999 FEW015 31/25 Q1014 NOSIG

Čas: 14:19 (14:19 UTC)

Předpověď počasí

Zpráva byla vytvořena před 3 hodinami a 19 minutami, v 11:00 UTC
Předpověď platná od 10 v 12 UTC do 11 v 18 UTC
Severozápadní vítr 6 kt
Viditelnost: 6000 m
zákal
Pravděpodobnost 30% :
Dočasný
od 11 v 04 UTC do 11 v 09 UTC
vítr z různých směrů 2 kt
Viditelnost: 3000 m
Skoro jasno ve výšce 1600 ft
kouřmo

TAF: GUCY 101100Z 1012/1118 32006KT 6000 HZ NSC PROB30 TEMPO 1104/1109 VRB02KT 3000 BR FEW016

Stav a předpovědi počasí z více než 4 000 letišť (zprávy METAR a TAF).

Červené a žluté tečky na mapě představují dostupné meteorologické stanice.

Když kurzor umístíte na tečku, zobrazí se název stanice.

Pak kliknutím zobrazíte stav a předpověď počasí.

Chcete-li změnit mapu, kliknutím na zelené tlačítko se znaménkem +mapu přiblížíte, kliknutím na zelené tlačítko se znaménkem – mapu oddálíte a kliknutím na zelené šipky přejdete na sousední mapy.


METAR-TAF: